createdAt,value
2018-12-06T00:01:41.821Z,2.78
2018-12-06T00:04:07.563Z,2.81
2018-12-06T00:06:33.291Z,2.84
2018-12-06T00:08:59.008Z,2.80
2018-12-06T00:11:24.744Z,2.82
2018-12-06T00:13:51.081Z,2.87
2018-12-06T00:16:16.911Z,2.90
2018-12-06T00:18:46.630Z,2.93
2018-12-06T00:21:12.368Z,2.91
2018-12-06T00:23:38.082Z,2.94
2018-12-06T00:26:03.919Z,2.97
2018-12-06T00:28:29.633Z,3.00
2018-12-06T00:30:55.355Z,3.00
2018-12-06T00:33:21.089Z,2.98
2018-12-06T00:35:47.019Z,3.01
2018-12-06T00:38:12.827Z,3.00
2018-12-06T00:40:38.545Z,2.99
2018-12-06T00:43:04.259Z,3.00
2018-12-06T00:45:30.188Z,3.00
2018-12-06T00:47:56.019Z,2.99
2018-12-06T00:50:21.735Z,2.99
2018-12-06T00:52:47.456Z,2.99
2018-12-06T00:55:13.395Z,3.03
2018-12-06T00:57:39.115Z,3.03
2018-12-06T01:00:06.743Z,3.02
2018-12-06T01:02:32.575Z,3.05
2018-12-06T01:04:58.393Z,3.06
2018-12-06T01:07:24.225Z,3.06
2018-12-06T01:09:49.939Z,3.10
2018-12-06T01:12:15.670Z,3.08
2018-12-06T01:14:41.486Z,3.13
2018-12-06T01:17:08.409Z,3.14
2018-12-06T01:19:34.335Z,3.13
2018-12-06T01:22:00.456Z,3.07
2018-12-06T01:24:26.392Z,3.13
2018-12-06T01:26:52.250Z,3.10
2018-12-06T01:29:17.978Z,3.10
2018-12-06T01:31:43.706Z,3.11
2018-12-06T01:34:09.419Z,3.12
2018-12-06T01:36:35.137Z,3.12
2018-12-06T01:39:00.867Z,3.16
2018-12-06T01:41:26.682Z,3.12
2018-12-06T01:43:52.396Z,3.15
2018-12-06T01:46:18.108Z,3.17
2018-12-06T01:48:44.140Z,3.18
2018-12-06T01:51:09.859Z,3.20
2018-12-06T01:53:35.791Z,3.20
2018-12-06T01:56:01.511Z,3.22
2018-12-06T01:58:27.249Z,3.16
2018-12-06T02:00:52.952Z,3.20
2018-12-06T02:03:18.680Z,3.18
2018-12-06T02:05:44.403Z,3.18
2018-12-06T02:08:10.120Z,3.20
2018-12-06T02:10:35.934Z,3.21
2018-12-06T02:13:01.667Z,3.22
2018-12-06T02:15:27.392Z,3.23
2018-12-06T02:17:53.155Z,3.26
2018-12-06T02:20:18.974Z,3.27
2018-12-06T02:22:44.711Z,3.26
2018-12-06T02:25:10.547Z,3.31
2018-12-06T02:27:36.291Z,3.30
2018-12-06T02:30:03.524Z,3.31
2018-12-06T02:32:29.247Z,3.36
2018-12-06T02:34:55.079Z,3.38
2018-12-06T02:37:20.801Z,3.40
2018-12-06T02:39:46.632Z,3.41
2018-12-06T02:42:12.352Z,3.41
2018-12-06T02:44:38.396Z,3.44
2018-12-06T02:47:04.127Z,3.45
2018-12-06T02:49:29.950Z,3.42
2018-12-06T02:51:55.675Z,3.44
2018-12-06T02:54:23.236Z,3.45
2018-12-06T02:56:48.967Z,3.47
2018-12-06T02:59:14.698Z,3.50
2018-12-06T03:01:40.623Z,3.52
2018-12-06T03:04:06.459Z,3.55
2018-12-06T03:06:32.195Z,3.60
2018-12-06T03:08:58.135Z,3.58
2018-12-06T03:11:23.869Z,3.54
2018-12-06T03:13:49.726Z,3.56
2018-12-06T03:16:15.440Z,3.54
2018-12-06T03:18:41.154Z,3.55
2018-12-06T03:21:06.874Z,3.49
2018-12-06T03:23:32.599Z,3.49
2018-12-06T03:25:58.343Z,3.48
2018-12-06T03:28:24.061Z,3.47
2018-12-06T03:30:49.788Z,3.47
2018-12-06T03:33:15.615Z,3.51
2018-12-06T03:35:41.458Z,3.49
2018-12-06T03:38:07.185Z,3.47
2018-12-06T03:40:32.905Z,3.46
2018-12-06T03:42:58.727Z,3.47
2018-12-06T03:45:24.450Z,3.45
2018-12-06T03:47:50.266Z,3.42
2018-12-06T03:50:15.995Z,3.40
2018-12-06T03:52:41.699Z,3.36
2018-12-06T03:55:07.442Z,3.37
2018-12-06T03:57:33.267Z,3.38
2018-12-06T03:59:58.996Z,3.40
2018-12-06T04:02:24.710Z,3.35
2018-12-06T04:04:50.443Z,3.37
2018-12-06T04:07:16.152Z,3.35
2018-12-06T04:09:41.862Z,3.36
2018-12-06T04:12:07.683Z,3.37
2018-12-06T04:14:33.504Z,3.38
2018-12-06T04:16:59.338Z,3.41
2018-12-06T04:19:25.254Z,3.39
2018-12-06T04:21:51.079Z,3.39
2018-12-06T04:24:16.891Z,3.37
2018-12-06T04:26:42.715Z,3.37
2018-12-06T04:29:08.438Z,3.41
2018-12-06T04:31:35.079Z,3.41
2018-12-06T04:34:01.007Z,3.42
2018-12-06T04:36:26.715Z,3.47
2018-12-06T04:38:52.423Z,3.52
2018-12-06T04:41:18.164Z,3.52
2018-12-06T04:43:43.879Z,3.54
2018-12-06T04:46:09.594Z,3.52
2018-12-06T04:48:35.307Z,3.52
2018-12-06T04:51:01.143Z,3.53
2018-12-06T04:53:26.859Z,3.52
2018-12-06T04:55:52.570Z,3.59
2018-12-06T04:58:18.288Z,3.60
2018-12-06T05:00:44.111Z,3.64
2018-12-06T05:03:09.846Z,3.64
2018-12-06T05:05:35.580Z,3.62
2018-12-06T05:08:01.296Z,3.67
2018-12-06T05:10:27.023Z,3.68
2018-12-06T05:12:52.752Z,3.68
2018-12-06T05:15:18.561Z,3.72
2018-12-06T05:17:44.290Z,3.74
2018-12-06T05:20:10.106Z,3.74
2018-12-06T05:22:35.927Z,3.78
2018-12-06T05:25:02.255Z,3.83
2018-12-06T05:27:28.116Z,3.87
2018-12-06T05:29:53.827Z,3.82
2018-12-06T05:32:19.642Z,3.89
2018-12-06T05:34:45.346Z,3.89
2018-12-06T05:37:11.054Z,3.87
2018-12-06T05:39:36.766Z,3.91
2018-12-06T05:42:02.587Z,3.92
2018-12-06T05:44:28.287Z,3.89
2018-12-06T05:46:53.995Z,3.94
2018-12-06T05:49:19.721Z,3.93
2018-12-06T05:51:45.432Z,3.96
2018-12-06T05:54:11.267Z,3.91
2018-12-06T05:56:36.993Z,3.94
2018-12-06T05:59:02.928Z,3.93
2018-12-06T06:01:28.750Z,3.93
2018-12-06T06:03:54.519Z,3.93
2018-12-06T06:06:20.241Z,4.01
2018-12-06T06:08:45.968Z,3.97
2018-12-06T06:11:11.787Z,4.03
2018-12-06T06:13:37.627Z,4.08
2018-12-06T06:16:03.358Z,4.04
2018-12-06T06:18:29.190Z,4.06
2018-12-06T06:20:54.903Z,4.02
2018-12-06T06:23:20.627Z,4.06
2018-12-06T06:25:46.565Z,4.09
2018-12-06T06:28:12.286Z,4.07
2018-12-06T06:30:38.004Z,4.11
2018-12-06T06:33:03.723Z,4.13
2018-12-06T06:35:29.440Z,4.14
2018-12-06T06:37:55.159Z,4.12
2018-12-06T06:40:27.791Z,4.12
2018-12-06T06:42:53.517Z,4.16
2018-12-06T06:45:19.351Z,4.12
2018-12-06T06:47:45.066Z,4.14
2018-12-06T06:50:10.787Z,4.14
2018-12-06T06:52:36.515Z,4.15
2018-12-06T06:55:02.748Z,4.15
2018-12-06T06:57:28.458Z,4.17
2018-12-06T06:59:54.190Z,4.17
2018-12-06T07:02:20.004Z,4.17
2018-12-06T07:04:52.667Z,4.15
2018-12-06T07:07:18.381Z,4.17
2018-12-06T07:09:44.103Z,4.16
2018-12-06T07:12:09.829Z,4.21
2018-12-06T07:14:35.576Z,4.20
2018-12-06T07:17:01.325Z,4.23
2018-12-06T07:19:27.147Z,4.25
2018-12-06T07:21:52.980Z,4.29
2018-12-06T07:24:18.710Z,4.29
2018-12-06T07:26:44.588Z,4.27
2018-12-06T07:29:10.480Z,4.32
2018-12-06T07:31:36.338Z,4.29
2018-12-06T07:34:02.281Z,4.27
2018-12-06T07:36:28.111Z,4.28
2018-12-06T07:38:53.839Z,4.36
2018-12-06T07:41:19.597Z,4.35
2018-12-06T07:43:45.313Z,4.35
2018-12-06T07:46:11.034Z,4.34
2018-12-06T07:48:36.860Z,4.37
2018-12-06T07:51:02.705Z,4.42
2018-12-06T07:53:28.423Z,4.42
2018-12-06T07:55:54.255Z,4.48
2018-12-06T07:58:19.966Z,4.45
2018-12-06T08:00:45.752Z,4.50
2018-12-06T08:03:11.476Z,4.55
2018-12-06T08:05:37.211Z,4.57
2018-12-06T08:08:10.179Z,4.59
2018-12-06T08:10:36.030Z,4.63
2018-12-06T08:13:01.742Z,4.66
2018-12-06T08:15:27.469Z,4.70
2018-12-06T08:17:53.194Z,4.74
2018-12-06T08:20:18.914Z,4.79
2018-12-06T08:22:44.642Z,4.79
2018-12-06T08:25:10.367Z,4.80
2018-12-06T08:27:36.199Z,4.85
2018-12-06T08:30:02.750Z,4.83
2018-12-06T08:32:28.589Z,4.85
2018-12-06T08:34:54.423Z,4.89
2018-12-06T08:37:20.159Z,4.91
2018-12-06T08:39:45.867Z,4.91
2018-12-06T08:42:11.600Z,4.96
2018-12-06T08:44:37.315Z,4.98
2018-12-06T08:47:03.143Z,5.03
2018-12-06T08:49:29.067Z,5.06
2018-12-06T08:51:54.900Z,5.05
2018-12-06T08:54:20.712Z,5.09
2018-12-06T08:56:46.536Z,5.11
2018-12-06T08:59:12.376Z,5.14
2018-12-06T09:01:38.208Z,5.17
2018-12-06T09:04:04.032Z,5.22
2018-12-06T09:06:29.878Z,5.24
2018-12-06T09:08:56.632Z,5.23
2018-12-06T09:11:23.851Z,5.26
2018-12-06T09:13:49.634Z,5.26
2018-12-06T09:16:16.357Z,5.32
2018-12-06T09:18:42.326Z,5.33
2018-12-06T09:21:08.040Z,5.36
2018-12-06T09:23:33.863Z,5.38
2018-12-06T09:25:59.698Z,5.42
2018-12-06T09:28:25.643Z,5.45
2018-12-06T09:30:51.368Z,5.50
2018-12-06T09:33:17.099Z,5.51
2018-12-06T09:35:42.920Z,5.52
2018-12-06T09:38:08.764Z,5.57
2018-12-06T09:40:34.600Z,5.53
2018-12-06T09:43:00.336Z,5.58
2018-12-06T09:45:26.146Z,5.64
2018-12-06T09:47:51.872Z,5.64
2018-12-06T09:50:18.410Z,5.67
2018-12-06T09:52:44.336Z,5.69
2018-12-06T09:55:10.045Z,5.75
2018-12-06T09:57:35.775Z,5.77
2018-12-06T10:00:01.633Z,5.83
2018-12-06T10:02:27.470Z,5.82
2018-12-06T10:04:53.209Z,5.87
2018-12-06T10:07:18.923Z,5.90
2018-12-06T10:09:44.653Z,5.83
2018-12-06T10:12:10.571Z,5.90
2018-12-06T10:14:36.445Z,5.94
2018-12-06T10:17:02.274Z,5.94
2018-12-06T10:19:28.003Z,5.98
2018-12-06T10:21:53.819Z,6.00
2018-12-06T10:24:19.552Z,6.01
2018-12-06T10:26:45.263Z,6.05
2018-12-06T10:29:10.984Z,6.03
2018-12-06T10:31:36.691Z,6.07
2018-12-06T10:34:02.435Z,6.06
2018-12-06T10:36:28.263Z,6.07
2018-12-06T10:38:54.101Z,6.09
2018-12-06T10:41:19.936Z,6.11
2018-12-06T10:43:45.678Z,6.14
2018-12-06T10:46:11.398Z,6.17
2018-12-06T10:48:37.114Z,6.19
2018-12-06T10:51:15.050Z,6.18
2018-12-06T10:53:40.770Z,6.23
2018-12-06T10:56:06.499Z,6.21
2018-12-06T10:58:32.476Z,6.25
2018-12-06T11:01:07.764Z,6.29
2018-12-06T11:03:36.030Z,6.31
2018-12-06T11:06:01.764Z,6.31
2018-12-06T11:08:28.609Z,6.35
2018-12-06T11:10:54.345Z,6.32
2018-12-06T11:13:20.115Z,6.35
2018-12-06T11:15:45.951Z,6.41
2018-12-06T11:18:11.678Z,6.41
2018-12-06T11:20:37.882Z,6.44
2018-12-06T11:23:03.626Z,6.48
2018-12-06T11:25:29.471Z,6.45
2018-12-06T11:27:55.299Z,6.49
2018-12-06T11:30:21.028Z,6.49
2018-12-06T11:32:46.755Z,6.54
2018-12-06T11:35:12.704Z,6.54
2018-12-06T11:37:38.543Z,6.54
2018-12-06T11:40:04.472Z,6.58
2018-12-06T11:42:30.203Z,6.59
2018-12-06T11:44:55.924Z,6.64
2018-12-06T11:47:21.755Z,6.60
2018-12-06T11:49:47.587Z,6.60
2018-12-06T11:52:13.429Z,6.63
2018-12-06T11:54:39.145Z,6.68
2018-12-06T11:57:04.881Z,6.66
2018-12-06T11:59:30.708Z,6.71
2018-12-06T12:01:56.535Z,6.71
2018-12-06T12:04:22.360Z,6.72
2018-12-06T12:06:48.243Z,6.71
2018-12-06T12:09:14.027Z,6.74
2018-12-06T12:11:39.747Z,6.78
2018-12-06T12:14:05.572Z,6.75
2018-12-06T12:16:31.477Z,6.79
2018-12-06T12:18:57.333Z,6.78
2018-12-06T12:21:23.043Z,6.81
2018-12-06T12:23:48.765Z,6.81
2018-12-06T12:26:14.495Z,6.82
2018-12-06T12:28:40.331Z,6.85
2018-12-06T12:31:06.356Z,6.89
2018-12-06T12:33:32.183Z,6.89
2018-12-06T12:35:57.903Z,6.89
2018-12-06T12:38:23.745Z,6.91
2018-12-06T12:40:49.459Z,6.96
2018-12-06T12:43:15.191Z,6.95
2018-12-06T12:45:41.011Z,6.94
2018-12-06T12:48:06.727Z,6.97
2018-12-06T12:50:32.455Z,6.95
2018-12-06T12:52:58.279Z,6.98
2018-12-06T12:55:23.987Z,7.00
2018-12-06T12:57:49.807Z,6.99
2018-12-06T13:00:15.636Z,7.04
2018-12-06T13:02:41.456Z,7.03
2018-12-06T13:05:07.322Z,7.05
2018-12-06T13:07:33.079Z,7.08
2018-12-06T13:09:58.806Z,7.13
2018-12-06T13:12:24.632Z,7.13
2018-12-06T13:14:50.475Z,7.14
2018-12-06T13:17:16.308Z,7.17
2018-12-06T13:19:42.042Z,7.22
2018-12-06T13:22:07.779Z,7.25
2018-12-06T13:24:33.527Z,7.25
2018-12-06T13:26:59.282Z,7.26
2018-12-06T13:29:25.006Z,7.29
2018-12-06T13:31:50.740Z,7.31
2018-12-06T13:34:16.663Z,7.32
2018-12-06T13:36:42.443Z,7.35
2018-12-06T13:39:08.256Z,7.36
2018-12-06T13:41:34.195Z,7.39
2018-12-06T13:43:59.926Z,7.40
2018-12-06T13:46:25.772Z,7.40
2018-12-06T13:48:51.580Z,7.43
2018-12-06T13:51:17.311Z,7.42
2018-12-06T13:53:43.039Z,7.45
2018-12-06T13:56:09.054Z,7.46
2018-12-06T13:58:34.881Z,7.48
2018-12-06T14:01:00.838Z,7.50
2018-12-06T14:03:26.977Z,7.50
2018-12-06T14:08:25.311Z,7.55
2018-12-06T14:10:51.190Z,7.55
2018-12-06T14:13:23.454Z,7.57
2018-12-06T14:15:44.733Z,7.59
2018-12-06T14:18:10.463Z,7.61
2018-12-06T14:20:36.199Z,7.64
2018-12-06T14:23:02.014Z,7.66
2018-12-06T14:25:27.792Z,7.66
2018-12-06T14:27:53.516Z,7.68
2018-12-06T14:30:19.359Z,7.69
2018-12-06T14:32:45.112Z,7.67
2018-12-06T14:35:10.968Z,7.71
2018-12-06T14:37:37.782Z,7.75
2018-12-06T14:40:05.228Z,7.80
2018-12-06T14:42:30.963Z,7.81
2018-12-06T14:44:56.703Z,7.86
2018-12-06T14:47:22.476Z,7.88
2018-12-06T14:49:48.300Z,7.90
2018-12-06T14:52:14.028Z,7.95
2018-12-06T14:54:39.775Z,8.00
2018-12-06T14:57:05.632Z,8.02
2018-12-06T14:59:31.365Z,8.05
2018-12-06T15:01:57.107Z,8.06
2018-12-06T15:04:22.929Z,8.09
2018-12-06T15:06:48.767Z,8.13
2018-12-06T15:09:14.496Z,8.16
2018-12-06T15:11:40.344Z,8.19
2018-12-06T15:14:06.176Z,8.20
2018-12-06T15:16:32.023Z,8.24
2018-12-06T15:18:57.758Z,8.22
2018-12-06T15:21:23.492Z,8.24
2018-12-06T15:23:49.329Z,8.26
2018-12-06T15:26:15.057Z,8.31
2018-12-06T15:28:40.812Z,8.32
2018-12-06T15:31:06.543Z,8.32
2018-12-06T15:33:32.294Z,8.35
2018-12-06T15:35:58.121Z,8.38
2018-12-06T15:38:23.971Z,8.41
2018-12-06T15:40:49.696Z,8.43
2018-12-06T15:43:15.440Z,8.45
2018-12-06T15:45:41.175Z,8.49
2018-12-06T15:48:07.013Z,8.51
2018-12-06T15:50:32.957Z,8.52
2018-12-06T15:52:58.799Z,8.56
2018-12-06T15:55:24.635Z,8.66
2018-12-06T15:57:50.471Z,8.74
2018-12-06T16:00:16.299Z,8.74
2018-12-06T16:02:42.144Z,8.82
2018-12-06T16:05:07.958Z,8.92
2018-12-06T16:07:33.711Z,8.87
2018-12-06T16:09:59.654Z,8.88
2018-12-06T16:12:25.367Z,8.86
2018-12-06T16:14:51.224Z,8.91
2018-12-06T16:17:16.941Z,8.89
2018-12-06T16:19:42.687Z,8.96
2018-12-06T16:22:08.516Z,8.99
2018-12-06T16:24:34.267Z,8.99
2018-12-06T16:27:00.005Z,8.98
2018-12-06T16:29:25.739Z,9.03
2018-12-06T16:31:51.460Z,9.03
2018-12-06T16:34:17.193Z,9.04
2018-12-06T16:36:42.939Z,9.05
2018-12-06T16:39:08.800Z,9.06
2018-12-06T16:41:34.626Z,9.06
2018-12-06T16:44:00.481Z,9.15
2018-12-06T16:46:26.216Z,9.17
2018-12-06T16:48:52.079Z,9.17
2018-12-06T16:51:17.915Z,9.16
2018-12-06T16:53:43.759Z,9.16
2018-12-06T16:56:09.700Z,9.14
2018-12-06T16:58:35.529Z,9.10
2018-12-06T17:01:01.453Z,9.13
2018-12-06T17:03:27.267Z,9.18
2018-12-06T17:05:53.003Z,9.16
2018-12-06T17:08:18.731Z,9.16
2018-12-06T17:10:44.480Z,9.19
2018-12-06T17:13:10.216Z,9.14
2018-12-06T17:15:36.060Z,9.10
2018-12-06T17:18:01.808Z,9.11
2018-12-06T17:20:27.546Z,9.12
2018-12-06T17:22:53.289Z,9.13
2018-12-06T17:25:19.151Z,9.15
2018-12-06T17:27:44.874Z,9.20
2018-12-06T17:30:11.034Z,9.23
2018-12-06T17:32:36.875Z,9.22
2018-12-06T17:35:03.425Z,9.22
2018-12-06T17:37:29.273Z,9.24
2018-12-06T17:39:55.022Z,9.24
2018-12-06T17:42:20.876Z,9.26
2018-12-06T17:44:46.716Z,9.29
2018-12-06T17:47:12.472Z,9.31
2018-12-06T17:49:38.243Z,9.34
2018-12-06T17:52:03.997Z,9.36
2018-12-06T17:54:29.744Z,9.35
2018-12-06T17:56:55.588Z,9.34
2018-12-06T17:59:21.512Z,9.36
2018-12-06T18:01:47.249Z,9.35
2018-12-06T18:04:13.316Z,9.35
2018-12-06T18:06:39.164Z,9.31
2018-12-06T18:09:05.711Z,9.38
2018-12-06T18:11:31.466Z,9.37
2018-12-06T18:13:57.202Z,9.39
2018-12-06T18:16:23.063Z,9.37
2018-12-06T18:18:48.895Z,9.39
2018-12-06T18:21:14.939Z,9.38
2018-12-06T18:23:40.673Z,9.39
2018-12-06T18:26:06.523Z,9.40
2018-12-06T18:28:32.364Z,9.43
2018-12-06T18:30:58.195Z,9.45
2018-12-06T18:33:23.939Z,9.45
2018-12-06T18:35:49.772Z,9.44
2018-12-06T18:38:15.511Z,9.45
2018-12-06T18:40:41.240Z,9.48
2018-12-06T18:43:06.983Z,9.48
2018-12-06T18:45:32.711Z,9.50
2018-12-06T18:47:58.531Z,9.50
2018-12-06T18:50:24.260Z,9.51
2018-12-06T18:52:50.091Z,9.48
2018-12-06T18:55:15.827Z,9.49
2018-12-06T18:57:41.666Z,9.48
2018-12-06T19:00:08.197Z,9.51
2018-12-06T19:02:34.035Z,9.51
2018-12-06T19:04:59.768Z,9.52
2018-12-06T19:07:25.599Z,9.50
2018-12-06T19:09:51.312Z,9.51
2018-12-06T19:12:17.139Z,9.50
2018-12-06T19:14:42.992Z,9.51
2018-12-06T19:17:40.724Z,9.51
2018-12-06T19:20:06.671Z,9.52
2018-12-06T19:22:32.502Z,9.54
2018-12-06T19:24:58.242Z,9.51
2018-12-06T19:27:24.078Z,9.51
2018-12-06T19:29:49.917Z,9.51
2018-12-06T19:32:15.651Z,9.52
2018-12-06T19:34:41.812Z,9.55
2018-12-06T19:37:07.770Z,9.55
2018-12-06T19:39:33.606Z,9.53
2018-12-06T19:41:59.434Z,9.51
2018-12-06T19:44:25.173Z,9.55
2018-12-06T19:46:50.999Z,9.51
2018-12-06T19:49:16.728Z,9.51
2018-12-06T19:51:42.462Z,9.50
2018-12-06T19:54:08.216Z,9.49
2018-12-06T19:56:33.943Z,9.51
2018-12-06T19:59:06.757Z,9.50
2018-12-06T20:01:32.601Z,9.52
2018-12-06T20:03:58.447Z,9.47
2018-12-06T20:06:24.274Z,9.42
2018-12-06T20:08:50.008Z,9.49
2018-12-06T20:11:15.838Z,9.46
2018-12-06T20:13:41.663Z,9.46
2018-12-06T20:16:07.482Z,9.42
2018-12-06T20:18:33.211Z,9.43
2018-12-06T20:20:58.956Z,9.42
2018-12-06T20:23:24.692Z,9.42
2018-12-06T20:25:50.447Z,9.40
2018-12-06T20:28:16.179Z,9.44
2018-12-06T20:30:41.903Z,9.49
2018-12-06T20:33:07.705Z,9.46
2018-12-06T20:35:33.431Z,9.45
2018-12-06T20:37:59.154Z,9.48
2018-12-06T20:40:24.883Z,9.45
2018-12-06T20:42:50.617Z,9.47
2018-12-06T20:45:16.455Z,9.45
2018-12-06T20:47:42.194Z,9.44
2018-12-06T20:50:08.028Z,9.42
2018-12-06T20:52:33.759Z,9.44
2018-12-06T20:54:59.496Z,9.48
2018-12-06T20:57:25.220Z,9.45
2018-12-06T20:59:50.947Z,9.43
2018-12-06T21:02:16.675Z,9.44
2018-12-06T21:04:42.429Z,9.46
2018-12-06T21:07:08.243Z,9.45
2018-12-06T21:09:33.971Z,9.44
2018-12-06T21:11:59.798Z,9.44
2018-12-06T21:14:25.534Z,9.41
2018-12-06T21:16:51.262Z,9.43
2018-12-06T21:19:17.098Z,9.44
2018-12-06T21:21:42.820Z,9.42
2018-12-06T21:24:08.544Z,9.42
2018-12-06T21:26:34.471Z,9.42
2018-12-06T21:29:00.244Z,9.44
2018-12-06T21:31:26.091Z,9.44
2018-12-06T21:33:51.920Z,9.45
2018-12-06T21:36:17.679Z,9.48
2018-12-06T21:38:43.399Z,9.43
2018-12-06T21:41:09.133Z,9.44
2018-12-06T21:43:34.959Z,9.45
2018-12-06T21:46:00.697Z,9.50
2018-12-06T21:48:26.440Z,9.49
2018-12-06T21:50:52.172Z,9.49
2018-12-06T21:53:17.886Z,9.48
2018-12-06T21:55:43.641Z,9.53
2018-12-06T21:58:09.376Z,9.54
2018-12-06T22:00:35.111Z,9.57
2018-12-06T22:03:00.942Z,9.56
2018-12-06T22:05:26.769Z,9.58
2018-12-06T22:07:52.508Z,9.59
2018-12-06T22:10:18.232Z,9.59
2018-12-06T22:12:44.358Z,9.63
2018-12-06T22:15:10.201Z,9.65
2018-12-06T22:17:36.042Z,9.66
2018-12-06T22:20:02.270Z,9.64
2018-12-06T22:22:28.055Z,9.65
2018-12-06T22:24:53.884Z,9.62
2018-12-06T22:27:19.622Z,9.62
2018-12-06T22:29:52.372Z,9.60
2018-12-06T22:32:18.111Z,9.62
2018-12-06T22:34:44.037Z,9.62
2018-12-06T22:37:09.768Z,9.63
2018-12-06T22:39:35.599Z,9.59
2018-12-06T22:42:01.370Z,9.63
2018-12-06T22:44:27.115Z,9.62
2018-12-06T22:46:52.878Z,9.63
2018-12-06T22:49:19.065Z,9.68
2018-12-06T22:51:44.803Z,9.65
2018-12-06T22:54:10.647Z,9.69
2018-12-06T22:56:36.362Z,9.72
2018-12-06T22:59:09.155Z,9.74
2018-12-06T23:01:38.997Z,9.72
2018-12-06T23:04:04.841Z,9.74
2018-12-06T23:06:30.771Z,9.73
2018-12-06T23:08:56.599Z,9.76
2018-12-06T23:11:22.419Z,9.77
2018-12-06T23:13:48.161Z,9.78
2018-12-06T23:16:13.978Z,9.82
2018-12-06T23:18:39.804Z,9.82
2018-12-06T23:21:05.536Z,9.82
2018-12-06T23:23:31.275Z,9.83
2018-12-06T23:25:57.683Z,9.85
2018-12-06T23:28:23.403Z,9.87
2018-12-06T23:30:49.133Z,9.88
2018-12-06T23:33:14.856Z,9.89
2018-12-06T23:35:40.592Z,9.89
2018-12-06T23:38:06.333Z,9.91
2018-12-06T23:40:32.071Z,9.91
2018-12-06T23:42:57.890Z,9.93
2018-12-06T23:45:23.630Z,9.93
2018-12-06T23:47:49.463Z,9.95
2018-12-06T23:50:15.196Z,9.96
2018-12-06T23:52:41.035Z,9.96
2018-12-06T23:55:06.984Z,9.95
2018-12-06T23:57:32.709Z,9.95
2018-12-06T23:59:59.218Z,10.01
